Aérodrome :
LOGIN :

S'inscrire | Disclaimer

   EN    FR    IT 

 










Légende :    VFR   VFR Marginal   IFR   IFR Intensif   IFR Très Intensif
Visi : 
Plafond : 
>= 8 km
>= 3000ft
5 à 8 km
1000 à 3000 ft
1500m à 5 km
500 à 1000 ft
800 à 1500m
200 à 500 ft
< 800m
< 200 ft
Symboles :   Orages  Brouillard  Fortes neiges  Fortes précipitations  Vent > 20 kt
SIGMETs :   Divers  Orages  Givrage  Turbulence  Onde Orograph.  Cendres Volcan.







- Altitude de l'aérodrome : 1090 ft
- Code IATA : CFE
- Voir les cartes d'approche


LFLC - Clermont-Ferrand Auvergne

DERNIER METAR :
  • 191930Z AUTO VRB03KT 9999 SCT060 BKN070 22/16 Q1021 NOSIG

METARs EXPIRÉS :
  • 191900Z AUTO 31003KT 9999 BKN060 23/16 Q1021 NOSIG
  • 191830Z AUTO 31003KT 9999 BKN060 24/16 Q1020 NOSIG
  • 191800Z AUTO 33004KT CAVOK 24/16 Q1020 NOSIG
  • 191730Z AUTO 36003KT CAVOK 26/16 Q1020 NOSIG
  • 191700Z AUTO 36005KT 330V030 CAVOK 27/15 Q1020 TEMPO VRB15G25KT TSRA SCT050CB

TAF TAF LFLC
Valide du 19 à 15h jusqu'au 20 à 15h UTC


191400Z 1915/2015 VRB03KT 9999 FEW050
PROB30
TEMPO 1915/1918 SHRA FEW060TCU
PROB30
TEMPO 1915/1918 VRB15G25KT 5000 TSRA SCT050CB
BECMG 1921/1924 CAVOK
BECMG 2006/2009 17007KT
ATIS : +33 4 73 62 74 38
Pas de NOTAMs connus pour ce terrain.



MET'MAP, la Météo Aéronautique d'un coup d'oeil ! - Copyright ORBIFLY Décembre 2007 - Disclaimer

ORBIFLY MET'MAP TEAM :

Programmation & Développement : Alexandra Zaïnal
Conception & Développement : Baudouin d'Aumeries
Co-Programmation & Développement : Marc-Olivier Méhu
Soutien technique & logistique : Manuel Goepfert

Contact : metmap@orbifly.com




SOURCES & CREDITS :

   NOAA